createdAt,value
2023-03-11T00:00:31.028Z,7.12
2023-03-11T00:03:02.412Z,7.10
2023-03-11T00:05:33.826Z,7.06
2023-03-11T00:08:02.106Z,7.05
2023-03-11T00:10:31.789Z,7.04
2023-03-11T00:12:59.986Z,7.05
2023-03-11T00:15:28.464Z,7.06
2023-03-11T00:17:55.856Z,7.08
2023-03-11T00:20:27.016Z,7.10
2023-03-11T00:22:56.240Z,7.09
2023-03-11T00:25:26.152Z,7.07
2023-03-11T00:27:53.208Z,7.06
2023-03-11T00:30:21.810Z,7.05
2023-03-11T00:32:49.920Z,7.02
2023-03-11T00:35:21.502Z,7.02
2023-03-11T00:37:52.055Z,7.01
2023-03-11T00:40:23.418Z,7.01
2023-03-11T00:42:50.301Z,7.04
2023-03-11T00:45:17.390Z,7.08
2023-03-11T00:47:44.667Z,7.09
2023-03-11T00:50:17.948Z,7.09
2023-03-11T00:52:45.931Z,7.12
2023-03-11T00:55:16.634Z,7.13
2023-03-11T00:57:45.107Z,7.14
2023-03-11T01:00:15.614Z,7.15
2023-03-11T01:02:43.005Z,7.17
2023-03-11T01:05:11.345Z,7.20
2023-03-11T01:07:38.323Z,7.22
2023-03-11T01:10:08.043Z,7.23
2023-03-11T01:12:34.909Z,7.22
2023-03-11T01:15:05.591Z,7.19
2023-03-11T01:17:32.727Z,7.16
2023-03-11T01:19:59.578Z,7.16
2023-03-11T01:22:26.462Z,7.18
2023-03-11T01:24:53.323Z,7.20
2023-03-11T01:27:20.193Z,7.23
2023-03-11T01:29:47.042Z,7.25
2023-03-11T01:32:15.296Z,7.27
2023-03-11T01:34:42.154Z,7.27
2023-03-11T01:37:09.033Z,7.24
2023-03-11T01:39:35.956Z,7.19
2023-03-11T01:42:03.229Z,7.15
2023-03-11T01:44:30.182Z,7.11
2023-03-11T01:47:39.825Z,7.05
2023-03-11T01:50:12.816Z,7.05
2023-03-11T01:52:42.549Z,7.04
2023-03-11T01:55:12.331Z,7.02
2023-03-11T01:57:42.301Z,7.01
2023-03-11T02:00:13.271Z,6.99
2023-03-11T02:02:48.073Z,6.98
2023-03-11T02:05:16.575Z,6.99
2023-03-11T02:07:43.594Z,7.00
2023-03-11T02:10:13.628Z,7.02
2023-03-11T02:12:42.505Z,7.02
2023-03-11T02:15:12.510Z,6.99
2023-03-11T02:17:42.908Z,6.96
2023-03-11T02:20:28.481Z,6.93
2023-03-11T02:22:57.283Z,6.94
2023-03-11T02:25:34.574Z,6.96
2023-03-11T02:28:07.174Z,6.98
2023-03-11T02:30:36.592Z,6.98
2023-03-11T02:33:04.002Z,6.99
2023-03-11T02:35:31.620Z,7.01
2023-03-11T02:37:58.696Z,7.04
2023-03-11T02:40:48.601Z,7.05
2023-03-11T02:43:22.220Z,7.07
2023-03-11T02:45:49.900Z,7.08
2023-03-11T02:48:18.670Z,7.10
2023-03-11T02:50:47.331Z,7.10
2023-03-11T02:53:14.641Z,7.11
2023-03-11T02:55:41.520Z,7.10
2023-03-11T02:58:08.713Z,7.07
2023-03-11T03:00:37.210Z,7.05
2023-03-11T03:03:05.154Z,7.03
2023-03-11T03:05:32.060Z,7.01
2023-03-11T03:07:59.112Z,6.97
2023-03-11T03:10:26.073Z,6.97
2023-03-11T03:12:52.972Z,6.99
2023-03-11T03:15:19.953Z,6.99
2023-03-11T03:17:48.341Z,6.95
2023-03-11T03:20:15.371Z,6.95
2023-03-11T03:22:43.232Z,6.95
2023-03-11T03:25:11.515Z,6.94
2023-03-11T03:27:38.906Z,6.95
2023-03-11T03:30:08.968Z,6.94
2023-03-11T03:32:36.812Z,6.97
2023-03-11T03:35:06.970Z,6.98
2023-03-11T03:37:36.758Z,6.97
2023-03-11T03:40:09.587Z,6.95
2023-03-11T03:42:37.689Z,6.93
2023-03-11T03:45:07.833Z,6.89
2023-03-11T03:47:36.241Z,6.88
2023-03-11T03:50:06.710Z,6.89
2023-03-11T03:52:34.916Z,6.90
2023-03-11T03:55:01.919Z,6.90
2023-03-11T03:57:29.150Z,6.89
2023-03-11T03:59:56.134Z,6.89
2023-03-11T04:02:23.316Z,6.93
2023-03-11T04:04:50.658Z,6.98
2023-03-11T04:07:19.124Z,7.02
2023-03-11T04:09:46.542Z,7.04
2023-03-11T04:12:17.351Z,7.06
2023-03-11T04:14:44.928Z,7.08
2023-03-11T04:17:12.782Z,7.08
2023-03-11T04:19:39.873Z,7.09
2023-03-11T04:22:07.068Z,7.06
2023-03-11T04:24:35.327Z,7.03
2023-03-11T04:27:02.277Z,7.02
2023-03-11T04:29:29.217Z,7.00
2023-03-11T04:31:56.066Z,6.99
2023-03-11T04:34:23.204Z,6.98
2023-03-11T04:36:52.534Z,6.95
2023-03-11T04:39:19.551Z,6.94
2023-03-11T04:41:47.819Z,6.92
2023-03-11T04:44:15.100Z,6.89
2023-03-11T04:46:42.100Z,6.85
2023-03-11T04:49:09.813Z,6.83
2023-03-11T04:51:36.880Z,6.82
2023-03-11T04:54:04.136Z,6.77
2023-03-11T04:56:31.029Z,6.74
2023-03-11T04:58:59.401Z,6.71
2023-03-11T05:01:26.395Z,6.69
2023-03-11T05:03:53.266Z,6.69
2023-03-11T05:06:20.134Z,6.69
2023-03-11T05:08:47.023Z,6.68
2023-03-11T05:11:13.905Z,6.64
2023-03-11T05:13:40.769Z,6.63
2023-03-11T05:16:09.135Z,6.64
2023-03-11T05:18:36.099Z,6.66
2023-03-11T05:21:03.340Z,6.68
2023-03-11T05:23:30.189Z,6.70
2023-03-11T05:25:57.073Z,6.68
2023-03-11T05:28:24.016Z,6.64
2023-03-11T05:30:51.370Z,6.59
2023-03-11T05:33:19.698Z,6.53
2023-03-11T05:35:46.907Z,6.48
2023-03-11T05:38:14.199Z,6.42
2023-03-11T05:40:41.365Z,6.39
2023-03-11T05:43:08.421Z,6.35
2023-03-11T05:45:35.317Z,6.31
2023-03-11T05:48:02.222Z,6.28
2023-03-11T05:50:30.451Z,6.24
2023-03-11T05:52:57.430Z,6.21
2023-03-11T05:55:24.275Z,6.18
2023-03-11T05:57:52.230Z,6.15
2023-03-11T06:00:20.517Z,6.13
2023-03-11T06:02:47.568Z,6.12
2023-03-11T06:05:14.962Z,6.10
2023-03-11T06:07:43.281Z,6.08
2023-03-11T06:10:11.941Z,6.08
2023-03-11T06:12:39.367Z,6.06
2023-03-11T06:15:07.970Z,6.06
2023-03-11T06:17:34.952Z,6.08
2023-03-11T06:20:01.816Z,6.12
2023-03-11T06:22:28.797Z,6.17
2023-03-11T06:24:57.031Z,6.21
2023-03-11T06:27:23.900Z,6.24
2023-03-11T06:29:53.544Z,6.25
2023-03-11T06:32:20.644Z,6.26
2023-03-11T06:34:51.682Z,6.25
2023-03-11T06:37:19.158Z,6.25
2023-03-11T06:39:46.018Z,6.26
2023-03-11T06:42:14.481Z,6.28
2023-03-11T06:44:41.394Z,6.34
2023-03-11T06:47:08.295Z,6.47
2023-03-11T06:49:36.860Z,6.62
2023-03-11T06:52:04.298Z,6.75
2023-03-11T06:54:31.181Z,6.85
2023-03-11T06:56:58.048Z,6.91
2023-03-11T06:59:28.114Z,6.94
2023-03-11T07:01:55.222Z,6.98
2023-03-11T07:04:22.165Z,7.02
2023-03-11T07:06:49.043Z,7.04
2023-03-11T07:09:16.184Z,7.03
2023-03-11T07:11:43.354Z,7.03
2023-03-11T07:14:10.302Z,7.12
2023-03-11T07:16:39.340Z,7.32
2023-03-11T07:19:06.318Z,7.44
2023-03-11T07:21:33.432Z,7.49
2023-03-11T07:24:02.694Z,7.49
2023-03-11T07:26:31.288Z,7.51
2023-03-11T07:28:58.790Z,7.69
2023-03-11T07:31:28.355Z,7.92
2023-03-11T07:33:58.634Z,8.25
2023-03-11T07:36:26.924Z,8.46
2023-03-11T07:38:58.303Z,8.63
2023-03-11T07:41:26.760Z,8.84
2023-03-11T07:43:56.023Z,9.05
2023-03-11T07:46:24.945Z,9.26
2023-03-11T07:48:52.616Z,9.47
2023-03-11T07:51:23.681Z,9.66
2023-03-11T07:53:53.146Z,9.95
2023-03-11T07:56:23.525Z,10.29
2023-03-11T07:58:51.384Z,10.63
2023-03-11T08:01:21.411Z,10.93
2023-03-11T08:03:51.228Z,11.28
2023-03-11T08:06:24.040Z,11.65
2023-03-11T08:08:51.600Z,11.98
2023-03-11T08:11:20.843Z,12.26
2023-03-11T08:13:49.623Z,12.45
2023-03-11T08:16:19.956Z,12.56
2023-03-11T08:18:48.027Z,12.61
2023-03-11T08:21:18.292Z,12.76
2023-03-11T08:23:46.511Z,13.01
2023-03-11T08:26:17.573Z,13.27
2023-03-11T08:28:45.426Z,13.57
2023-03-11T08:31:14.270Z,13.74
2023-03-11T08:33:42.557Z,13.82
2023-03-11T08:36:09.886Z,14.01
2023-03-11T08:38:37.105Z,14.36
2023-03-11T08:41:05.609Z,14.97
2023-03-11T08:43:33.046Z,15.77
2023-03-11T08:46:01.562Z,16.57
2023-03-11T08:48:29.064Z,17.34
2023-03-11T08:50:56.355Z,18.00
2023-03-11T08:53:23.764Z,18.64
2023-03-11T08:55:52.152Z,19.23
2023-03-11T08:58:21.160Z,19.87
2023-03-11T09:00:48.259Z,20.40
2023-03-11T09:03:15.316Z,20.92
2023-03-11T09:05:42.246Z,21.51
2023-03-11T09:08:09.988Z,22.00
2023-03-11T09:10:39.623Z,22.26
2023-03-11T09:13:06.709Z,22.19
2023-03-11T09:15:36.326Z,22.23
2023-03-11T09:18:03.583Z,22.39
2023-03-11T09:20:30.510Z,22.65
2023-03-11T09:22:57.395Z,22.88
2023-03-11T09:25:24.539Z,23.23
2023-03-11T09:27:51.415Z,23.58
2023-03-11T09:30:18.681Z,23.94
2023-03-11T09:32:47.091Z,24.36
2023-03-11T09:35:14.088Z,24.85
2023-03-11T09:37:41.425Z,25.27
2023-03-11T09:40:15.342Z,25.73
2023-03-11T09:42:55.662Z,26.10
2023-03-11T09:45:28.093Z,26.39
2023-03-11T09:48:16.701Z,26.71
2023-03-11T09:50:53.553Z,26.89
2023-03-11T09:53:35.141Z,27.03
2023-03-11T09:56:07.864Z,27.35
2023-03-11T09:58:40.718Z,27.61
2023-03-11T10:01:18.364Z,27.70
2023-03-11T10:03:48.414Z,27.76
2023-03-11T10:06:19.569Z,27.72
2023-03-11T10:08:57.026Z,27.65
2023-03-11T10:11:45.276Z,27.98
2023-03-11T10:14:30.172Z,28.40
2023-03-11T10:17:07.232Z,28.31
2023-03-11T10:19:46.385Z,27.95
2023-03-11T10:22:23.573Z,27.72
2023-03-11T10:25:05.340Z,27.51
2023-03-11T10:27:41.934Z,27.43
2023-03-11T10:30:23.342Z,27.20
2023-03-11T10:32:56.859Z,26.74
2023-03-11T10:35:39.017Z,26.25
2023-03-11T10:38:14.932Z,25.67
2023-03-11T10:40:45.059Z,25.23
2023-03-11T10:43:17.936Z,24.99
2023-03-11T10:45:48.434Z,24.70
2023-03-11T10:48:18.091Z,24.37
2023-03-11T10:50:57.741Z,24.05
2023-03-11T10:53:24.938Z,23.72
2023-03-11T10:55:54.556Z,23.37
2023-03-11T10:58:24.762Z,22.81
2023-03-11T11:01:05.216Z,22.24
2023-03-11T11:03:34.029Z,22.03
2023-03-11T11:06:06.907Z,22.13
2023-03-11T11:08:34.323Z,22.74
2023-03-11T11:11:03.660Z,23.66
2023-03-11T11:13:34.830Z,24.13
2023-03-11T11:16:05.801Z,24.26
2023-03-11T11:18:36.667Z,24.17
2023-03-11T11:21:09.125Z,23.83
2023-03-11T11:23:43.184Z,23.32
2023-03-11T11:26:19.233Z,22.78
2023-03-11T11:28:46.672Z,22.80
2023-03-11T11:31:25.777Z,22.75
2023-03-11T11:33:56.081Z,22.49
2023-03-11T11:36:30.193Z,22.16
2023-03-11T11:38:59.419Z,21.89
2023-03-11T11:41:30.465Z,21.65
2023-03-11T11:44:02.875Z,21.49
2023-03-11T11:46:38.399Z,21.27
2023-03-11T11:49:18.858Z,21.26
2023-03-11T11:51:55.045Z,21.09
2023-03-11T11:54:30.759Z,20.86
2023-03-11T11:56:58.462Z,20.62
2023-03-11T11:59:26.729Z,20.34
2023-03-11T12:02:13.711Z,20.01
2023-03-11T12:04:56.650Z,19.64
2023-03-11T12:07:47.716Z,19.33
2023-03-11T12:10:27.616Z,19.39
2023-03-11T12:13:43.033Z,19.97
2023-03-11T12:16:23.966Z,20.76
2023-03-11T12:19:00.282Z,21.24
2023-03-11T12:21:56.907Z,21.62
2023-03-11T12:24:54.618Z,22.02
2023-03-11T12:27:27.648Z,22.31
2023-03-11T12:30:01.734Z,22.31
2023-03-11T12:32:34.450Z,22.19
2023-03-11T12:35:10.689Z,22.24
2023-03-11T12:37:37.775Z,22.50
2023-03-11T12:40:47.866Z,22.57
2023-03-11T12:43:29.883Z,22.51
2023-03-11T12:46:01.146Z,22.69
2023-03-11T12:48:41.550Z,22.85
2023-03-11T12:51:40.136Z,22.64
2023-03-11T12:54:29.684Z,22.62
2023-03-11T12:56:59.954Z,22.30
2023-03-11T13:00:12.225Z,21.52
2023-03-11T13:03:26.734Z,20.95
2023-03-11T13:06:11.474Z,20.62
2023-03-11T13:08:48.371Z,20.23
2023-03-11T13:11:43.000Z,19.78
2023-03-11T13:14:29.831Z,19.53
2023-03-11T13:17:23.702Z,19.37
2023-03-11T13:19:55.182Z,19.40
2023-03-11T13:23:05.686Z,19.33
2023-03-11T13:25:40.636Z,19.26
2023-03-11T13:28:44.004Z,19.07
2023-03-11T13:31:34.510Z,18.88
2023-03-11T13:34:13.757Z,18.61
2023-03-11T13:36:56.368Z,18.19
2023-03-11T13:39:49.615Z,17.68
2023-03-11T13:42:27.885Z,17.25
2023-03-11T13:44:54.992Z,16.92
2023-03-11T13:47:23.638Z,16.86
2023-03-11T13:50:00.641Z,17.04
2023-03-11T13:52:32.624Z,17.38
2023-03-11T13:55:06.362Z,17.81
2023-03-11T13:57:37.287Z,17.97
2023-03-11T14:00:16.654Z,18.12
2023-03-11T14:02:48.963Z,18.28
2023-03-11T14:05:20.977Z,18.53
2023-03-11T14:07:47.961Z,18.79
2023-03-11T14:10:27.619Z,18.97
2023-03-11T14:13:16.639Z,18.81
2023-03-11T14:15:54.453Z,18.89
2023-03-11T14:18:43.530Z,18.55
2023-03-11T14:21:16.281Z,18.27
2023-03-11T14:23:46.327Z,18.59
2023-03-11T14:26:17.346Z,18.92
2023-03-11T14:28:49.456Z,19.17
2023-03-11T14:31:32.305Z,19.38
2023-03-11T14:34:07.433Z,19.69
2023-03-11T14:36:43.333Z,19.77
2023-03-11T14:39:31.184Z,19.45
2023-03-11T14:42:13.552Z,18.97
2023-03-11T14:44:44.684Z,18.73
2023-03-11T14:47:21.689Z,19.12
2023-03-11T14:49:51.225Z,19.37
2023-03-11T14:52:33.062Z,19.51
2023-03-11T14:55:02.201Z,19.32
2023-03-11T14:57:39.730Z,18.81
2023-03-11T15:00:16.545Z,18.57
2023-03-11T15:02:59.690Z,18.67
2023-03-11T15:05:36.408Z,18.37
2023-03-11T15:08:07.380Z,17.73
2023-03-11T15:10:36.830Z,17.11
2023-03-11T15:13:13.465Z,16.68
2023-03-11T15:15:42.075Z,16.44
2023-03-11T15:18:23.390Z,16.05
2023-03-11T15:21:06.128Z,15.92
2023-03-11T15:23:35.588Z,15.93
2023-03-11T15:26:04.150Z,16.04
2023-03-11T15:28:36.312Z,15.89
2023-03-11T15:31:31.721Z,15.44
2023-03-11T15:34:29.327Z,14.91
2023-03-11T15:37:19.247Z,14.59
2023-03-11T15:39:51.144Z,14.33
2023-03-11T15:42:22.896Z,14.11
2023-03-11T15:45:08.796Z,13.95
2023-03-11T15:47:37.445Z,13.84
2023-03-11T15:50:24.141Z,13.67
2023-03-11T15:52:54.270Z,13.50
2023-03-11T15:55:22.084Z,13.32
2023-03-11T15:57:52.750Z,13.21
2023-03-11T16:00:23.368Z,13.08
2023-03-11T16:02:51.989Z,13.01
2023-03-11T16:05:21.895Z,12.91
2023-03-11T16:07:49.940Z,12.80
2023-03-11T16:10:19.969Z,12.66
2023-03-11T16:12:47.102Z,12.54
2023-03-11T16:15:24.621Z,12.46
2023-03-11T16:17:54.344Z,12.43
2023-03-11T16:20:24.129Z,12.33
2023-03-11T16:22:54.753Z,12.16
2023-03-11T16:25:26.737Z,12.03
2023-03-11T16:27:56.695Z,11.95
2023-03-11T16:30:26.756Z,11.89
2023-03-11T16:32:55.465Z,11.84
2023-03-11T16:35:22.869Z,11.81
2023-03-11T16:37:50.161Z,11.81
2023-03-11T16:40:20.507Z,11.79
2023-03-11T16:42:48.483Z,11.80
2023-03-11T16:45:17.679Z,11.76
2023-03-11T16:47:44.733Z,11.72
2023-03-11T16:50:13.150Z,11.69
2023-03-11T16:52:40.210Z,11.70
2023-03-11T16:55:08.460Z,11.66
2023-03-11T16:57:36.329Z,11.67
2023-03-11T17:00:06.430Z,11.69
2023-03-11T17:02:33.643Z,11.71
2023-03-11T17:05:00.857Z,11.70
2023-03-11T17:07:29.301Z,11.68
2023-03-11T17:09:57.454Z,11.66
2023-03-11T17:12:25.756Z,11.62
2023-03-11T17:14:53.899Z,11.57
2023-03-11T17:17:22.339Z,11.52
2023-03-11T17:19:49.374Z,11.48
2023-03-11T17:22:17.064Z,11.45
2023-03-11T17:24:45.424Z,11.40
2023-03-11T17:27:12.551Z,11.36
2023-03-11T17:29:39.442Z,11.37
2023-03-11T17:32:07.769Z,11.36
2023-03-11T17:34:34.792Z,11.33
2023-03-11T17:37:01.947Z,11.31
2023-03-11T17:39:29.359Z,11.25
2023-03-11T17:41:57.652Z,11.20
2023-03-11T17:44:24.701Z,11.18
2023-03-11T17:46:51.786Z,11.18
2023-03-11T17:49:18.794Z,11.15
2023-03-11T17:51:45.864Z,11.13
2023-03-11T17:54:12.788Z,11.07
2023-03-11T17:56:39.761Z,11.02
2023-03-11T17:59:08.114Z,10.97
2023-03-11T18:01:35.169Z,10.89
2023-03-11T18:04:02.287Z,10.83
2023-03-11T18:06:31.485Z,10.77
2023-03-11T18:08:59.043Z,10.71
2023-03-11T18:11:28.329Z,10.62
2023-03-11T18:13:55.918Z,10.53
2023-03-11T18:16:28.456Z,10.45
2023-03-11T18:18:57.164Z,10.39
2023-03-11T18:21:27.006Z,10.32
2023-03-11T18:23:56.092Z,10.30
2023-03-11T18:26:25.124Z,10.30
2023-03-11T18:28:53.325Z,10.32
2023-03-11T18:31:24.126Z,10.29
2023-03-11T18:33:54.318Z,10.25
2023-03-11T18:36:24.721Z,10.17
2023-03-11T18:38:54.122Z,10.10
2023-03-11T18:41:21.548Z,10.04
2023-03-11T18:43:53.084Z,9.92
2023-03-11T18:46:20.503Z,9.83
2023-03-11T18:48:48.875Z,9.72
2023-03-11T18:51:18.211Z,9.60
2023-03-11T18:53:45.855Z,9.44
2023-03-11T18:56:17.310Z,9.35
2023-03-11T18:58:44.907Z,9.30
2023-03-11T19:01:15.683Z,9.24
2023-03-11T19:03:45.307Z,9.19
2023-03-11T19:06:13.934Z,9.11
2023-03-11T19:08:40.959Z,9.05
2023-03-11T19:11:08.582Z,8.99
2023-03-11T19:13:46.537Z,8.95
2023-03-11T19:16:16.786Z,8.91
2023-03-11T19:18:44.030Z,8.89
2023-03-11T19:21:15.087Z,8.84
2023-03-11T19:23:43.384Z,8.83
2023-03-11T19:26:10.564Z,8.80
2023-03-11T19:28:37.517Z,8.79
2023-03-11T19:31:05.588Z,8.77
2023-03-11T19:33:34.444Z,8.77
2023-03-11T19:36:05.376Z,8.74
2023-03-11T19:38:34.145Z,8.73
2023-03-11T19:41:04.121Z,8.72
2023-03-11T19:43:31.549Z,8.70
2023-03-11T19:45:58.560Z,8.67
2023-03-11T19:48:25.741Z,8.66
2023-03-11T19:50:53.555Z,8.63
2023-03-11T19:53:22.622Z,8.60
2023-03-11T19:55:54.542Z,8.57
2023-03-11T19:58:23.665Z,8.54
2023-03-11T20:00:51.733Z,8.53
2023-03-11T20:03:21.692Z,8.51
2023-03-11T20:05:51.126Z,8.51
2023-03-11T20:08:20.872Z,8.50
2023-03-11T20:10:52.135Z,8.48
2023-03-11T20:13:21.686Z,8.45
2023-03-11T20:15:49.715Z,8.42
2023-03-11T20:18:17.801Z,8.39
2023-03-11T20:20:45.704Z,8.38
2023-03-11T20:23:13.435Z,8.35
2023-03-11T20:25:41.785Z,8.34
2023-03-11T20:28:10.461Z,8.33
2023-03-11T20:30:39.226Z,8.29
2023-03-11T20:33:07.127Z,8.25
2023-03-11T20:35:34.626Z,8.23
2023-03-11T20:38:02.797Z,8.21
2023-03-11T20:40:30.462Z,8.19
2023-03-11T20:42:57.637Z,8.14
2023-03-11T20:45:25.960Z,8.13
2023-03-11T20:47:53.887Z,8.10
2023-03-11T20:50:21.810Z,8.08
2023-03-11T20:52:49.736Z,8.07
2023-03-11T20:55:17.375Z,8.05
2023-03-11T20:57:44.559Z,8.03
2023-03-11T21:00:14.091Z,8.03
2023-03-11T21:02:43.643Z,8.02
2023-03-11T21:05:12.262Z,8.00
2023-03-11T21:07:40.108Z,7.98
2023-03-11T21:10:10.444Z,7.97
2023-03-11T21:12:37.876Z,7.96
2023-03-11T21:15:07.164Z,7.96
2023-03-11T21:17:34.698Z,7.96
2023-03-11T21:20:05.129Z,7.94
2023-03-11T21:22:32.214Z,7.92
2023-03-11T21:24:59.226Z,7.91
2023-03-11T21:27:26.714Z,7.91
2023-03-11T21:29:55.200Z,7.90
2023-03-11T21:32:22.792Z,7.89
2023-03-11T21:34:50.184Z,7.88
2023-03-11T21:37:18.609Z,7.89
2023-03-11T21:39:45.631Z,7.89
2023-03-11T21:42:13.262Z,7.90
2023-03-11T21:44:41.290Z,7.91
2023-03-11T21:47:09.227Z,7.91
2023-03-11T21:49:36.341Z,7.91
2023-03-11T21:52:03.540Z,7.91
2023-03-11T21:54:31.863Z,7.91
2023-03-11T21:56:58.860Z,7.92
2023-03-11T21:59:26.189Z,7.91
2023-03-11T22:01:53.265Z,7.88
2023-03-11T22:04:20.698Z,7.84
2023-03-11T22:06:47.800Z,7.84
2023-03-11T22:09:14.976Z,7.85
2023-03-11T22:11:43.271Z,7.88
2023-03-11T22:14:10.414Z,7.87
2023-03-11T22:16:37.826Z,7.88
2023-03-11T22:19:08.703Z,7.89
2023-03-11T22:21:35.748Z,7.88
2023-03-11T22:24:02.776Z,7.90
2023-03-11T22:26:29.635Z,7.91
2023-03-11T22:28:57.931Z,7.91
2023-03-11T22:31:25.037Z,7.91
2023-03-11T22:33:52.273Z,7.90
2023-03-11T22:36:19.358Z,7.86
2023-03-11T22:38:46.597Z,7.85
2023-03-11T22:41:14.524Z,7.83
2023-03-11T22:43:41.576Z,7.82
2023-03-11T22:46:09.975Z,7.81
2023-03-11T22:48:37.139Z,7.80
2023-03-11T22:51:05.520Z,7.79
2023-03-11T22:53:32.622Z,7.79
2023-03-11T22:55:59.544Z,7.79
2023-03-11T22:58:26.463Z,7.79
2023-03-11T23:00:53.435Z,7.77
2023-03-11T23:03:21.753Z,7.74
2023-03-11T23:05:48.819Z,7.70
2023-03-11T23:08:16.629Z,7.68
2023-03-11T23:10:47.069Z,7.68
2023-03-11T23:13:14.626Z,7.70
2023-03-11T23:15:43.830Z,7.73
2023-03-11T23:18:12.346Z,7.71
2023-03-11T23:20:42.747Z,7.65
2023-03-11T23:23:10.909Z,7.60
2023-03-11T23:25:40.216Z,7.55
2023-03-11T23:28:07.873Z,7.49
2023-03-11T23:30:35.354Z,7.41
2023-03-11T23:33:02.902Z,7.36
2023-03-11T23:35:30.579Z,7.33
2023-03-11T23:37:59.787Z,7.29
2023-03-11T23:40:27.341Z,7.24
2023-03-11T23:42:54.368Z,7.20
2023-03-11T23:45:21.431Z,7.18
2023-03-11T23:47:48.310Z,7.17
2023-03-11T23:50:15.828Z,7.16
2023-03-11T23:52:43.261Z,7.17
2023-03-11T23:55:12.137Z,7.16
2023-03-11T23:57:39.183Z,7.18
